Terminal Aerodrome Forecast
Issued by NWS

Current Version | Previous Version | Graphics & Text | Print | Product List | Glossary On
Versions: 1 2 3 4 5 6 7 8 9 10 11 12 13 14 15 16 17 18 19
000
FTUS41 KILN 270540
TAFLUK
TAF
KLUK 270540Z 2706/2806 VRB03KT P6SM OVC080
     FM271100 VRB03KT P6SM -SHRA OVC035
     FM271500 17005KT P6SM VCSH OVC025
     FM272000 19006KT P6SM OVC025
     FM272300 VRB03KT P6SM OVC040=

USA.gov is the U.S. government's official web portal to all federal, state and local government web resources and services.